createdAt,value
2022-10-30T19:35:17.065Z,13.4
2022-10-30T19:40:55.147Z,13.4
2022-10-30T19:46:00.867Z,13.4
2022-10-30T19:51:49.000Z,13.4
2022-10-30T19:57:02.852Z,13.4
2022-10-30T20:02:11.056Z,13.2
2022-10-30T20:07:52.975Z,13.1
2022-10-30T20:13:15.606Z,13.1
2022-10-30T20:18:27.518Z,13.1
2022-10-30T20:24:08.428Z,13
2022-10-30T20:29:51.916Z,13
2022-10-30T20:35:28.286Z,12.9
2022-10-30T20:41:05.637Z,12.8
2022-10-30T20:46:32.256Z,12.8
2022-10-30T20:52:09.655Z,12.7
2022-10-30T20:57:32.247Z,12.6
2022-10-30T21:03:11.325Z,12.6
2022-10-30T21:08:53.419Z,12.5
2022-10-30T21:14:01.776Z,12.5
2022-10-30T21:19:46.604Z,12.5
2022-10-30T21:25:24.963Z,12.6
2022-10-30T21:31:03.983Z,12.6
2022-10-30T21:36:46.454Z,12.6
2022-10-30T21:42:09.133Z,12.5
2022-10-30T21:47:51.537Z,12.4
2022-10-30T21:53:35.496Z,12.3
2022-10-30T21:58:57.908Z,12.3
2022-10-30T22:04:07.378Z,12.2
2022-10-30T22:09:31.606Z,12.1
2022-10-30T22:14:37.859Z,12.1
2022-10-30T22:20:00.710Z,11.9
2022-10-30T22:25:22.714Z,11.8
2022-10-30T22:30:44.172Z,11.8
2022-10-30T22:36:21.194Z,11.8
2022-10-30T22:41:59.414Z,11.8
2022-10-30T22:47:35.346Z,11.8
2022-10-30T22:52:59.977Z,11.8
2022-10-30T22:58:38.615Z,11.8
2022-10-30T23:04:17.971Z,11.8
2022-10-30T23:09:26.805Z,11.7
2022-10-30T23:15:04.905Z,11.6
2022-10-30T23:20:28.714Z,11.6
2022-10-30T23:25:50.277Z,11.5
2022-10-30T23:31:28.524Z,11.4
2022-10-30T23:37:04.872Z,11.3
2022-10-30T23:42:41.657Z,11.1
